createdAt,value
2023-03-06T00:01:07.651Z,100404.34
2023-03-06T00:04:09.294Z,100406.16
2023-03-06T00:07:10.896Z,100399.25
2023-03-06T00:10:25.749Z,100391.44
2023-03-06T00:13:30.188Z,100384.59
2023-03-06T00:16:31.858Z,100379.41
2023-03-06T00:19:33.470Z,100380.28
2023-03-06T00:22:35.255Z,100377.75
2023-03-06T00:25:38.870Z,100375.13
2023-03-06T00:28:40.580Z,100371.72
2023-03-06T00:31:46.352Z,100363.03
2023-03-06T00:34:52.422Z,100358.75
2023-03-06T00:37:54.014Z,100361.44
2023-03-06T00:40:55.601Z,100371.13
2023-03-06T00:43:57.170Z,100366.78
2023-03-06T00:46:59.426Z,100370.41
2023-03-06T00:50:01.166Z,100366.16
2023-03-06T00:53:02.778Z,100370.63
2023-03-06T00:56:04.581Z,100372.44
2023-03-06T00:59:06.197Z,100370.78
2023-03-06T01:02:07.901Z,100366.50
2023-03-06T01:05:10.186Z,100368.34
2023-03-06T01:08:11.831Z,100363.13
2023-03-06T01:11:13.463Z,100349.28
2023-03-06T01:14:15.000Z,100350.19
2023-03-06T01:17:16.573Z,100344.06
2023-03-06T01:20:18.665Z,100339.69
2023-03-06T01:23:20.236Z,100343.28
2023-03-06T01:26:21.889Z,100336.31
2023-03-06T01:29:23.601Z,100335.47
2023-03-06T01:32:25.390Z,100334.63
2023-03-06T01:35:27.043Z,100338.22
2023-03-06T01:38:28.711Z,100331.19
2023-03-06T01:41:30.645Z,100332.16
2023-03-06T01:44:32.441Z,100330.38
2023-03-06T01:47:34.140Z,100322.56
2023-03-06T01:50:35.774Z,100320.88
2023-03-06T01:53:38.028Z,100311.28
2023-03-06T01:56:44.320Z,100309.53
2023-03-06T01:59:49.562Z,100316.47
2023-03-06T02:03:00.028Z,100309.53
2023-03-06T02:06:01.703Z,100304.31
2023-03-06T02:09:05.097Z,100301.69
2023-03-06T02:12:13.255Z,100296.53
2023-03-06T02:15:17.750Z,100290.41
2023-03-06T02:18:19.397Z,100287.75
2023-03-06T02:21:25.653Z,100287.75
2023-03-06T02:24:38.895Z,100279.06
2023-03-06T02:27:41.153Z,100278.25
2023-03-06T02:30:44.531Z,100273.88
2023-03-06T02:33:46.120Z,100273.03
2023-03-06T02:36:51.477Z,100270.41
2023-03-06T02:40:09.325Z,100268.72
2023-03-06T02:43:12.519Z,100274.84
2023-03-06T02:46:14.213Z,100269.63
2023-03-06T02:49:15.781Z,100269.69
2023-03-06T02:52:17.495Z,100267.88
2023-03-06T02:55:19.145Z,100267.06
2023-03-06T02:58:20.996Z,100270.50
2023-03-06T03:01:23.152Z,100266.13
2023-03-06T03:04:25.003Z,100273.13
2023-03-06T03:07:26.694Z,100269.63
2023-03-06T03:10:28.346Z,100261.69
2023-03-06T03:13:30.076Z,100268.72
2023-03-06T03:16:31.724Z,100271.34
2023-03-06T03:19:33.367Z,100257.41
2023-03-06T03:22:34.964Z,100256.50
2023-03-06T03:25:36.499Z,100247.78
2023-03-06T03:28:38.322Z,100251.34
2023-03-06T03:31:40.008Z,100249.53
2023-03-06T03:34:41.632Z,100246.91
2023-03-06T03:37:43.239Z,100241.66
2023-03-06T03:40:44.841Z,100232.22
2023-03-06T03:43:46.421Z,100226.97
2023-03-06T03:46:48.160Z,100234.91
2023-03-06T03:49:49.825Z,100233.13
2023-03-06T03:52:51.446Z,100226.19
2023-03-06T03:55:53.015Z,100231.44
2023-03-06T03:58:54.805Z,100217.53
2023-03-06T04:01:57.165Z,100218.44
2023-03-06T04:04:58.821Z,100217.56
2023-03-06T04:08:03.092Z,100212.41
2023-03-06T04:11:05.180Z,100208.91
2023-03-06T04:14:08.359Z,100206.28
2023-03-06T04:17:09.953Z,100201.13
2023-03-06T04:20:11.928Z,100196.78
2023-03-06T04:23:13.872Z,100199.47
2023-03-06T04:26:15.437Z,100192.44
2023-03-06T04:29:17.039Z,100192.44
2023-03-06T04:32:21.257Z,100190.75
2023-03-06T04:35:23.123Z,100192.56
2023-03-06T04:38:24.743Z,100178.63
2023-03-06T04:41:26.433Z,100176.00
2023-03-06T04:44:28.241Z,100176.00
2023-03-06T04:47:29.812Z,100170.84
2023-03-06T04:50:32.675Z,100181.25
2023-03-06T04:53:34.369Z,100167.38
2023-03-06T04:56:35.945Z,100175.22
2023-03-06T04:59:39.159Z,100177.84
2023-03-06T05:02:43.972Z,100180.47
2023-03-06T05:05:45.594Z,100177.06
2023-03-06T05:08:47.720Z,100165.72
2023-03-06T05:11:49.377Z,100174.53
2023-03-06T05:14:50.969Z,100183.34
2023-03-06T05:17:52.542Z,100176.44
2023-03-06T05:20:59.414Z,100169.53
2023-03-06T05:24:01.026Z,100158.28
2023-03-06T05:27:02.767Z,100168.78
2023-03-06T05:30:04.865Z,100161.84
2023-03-06T05:33:06.454Z,100164.50
2023-03-06T05:36:09.608Z,100164.59
2023-03-06T05:39:11.211Z,100166.41
2023-03-06T05:42:12.814Z,100162.25
2023-03-06T05:45:14.479Z,100165.59
2023-03-06T05:48:16.061Z,100163.94
2023-03-06T05:51:17.683Z,100166.69
2023-03-06T05:54:19.392Z,100162.53
2023-03-06T05:57:23.500Z,100163.63
2023-03-06T06:00:25.313Z,100164.59
2023-03-06T06:03:27.584Z,100166.44
2023-03-06T06:06:29.175Z,100164.78
2023-03-06T06:09:31.032Z,100165.72
2023-03-06T06:12:33.048Z,100162.28
2023-03-06T06:15:34.724Z,100165.75
2023-03-06T06:18:36.333Z,100162.28
2023-03-06T06:21:37.890Z,100169.31
2023-03-06T06:24:39.934Z,100169.34
2023-03-06T06:27:41.990Z,100166.78
2023-03-06T06:30:43.530Z,100159.03
2023-03-06T06:33:45.611Z,100168.72
2023-03-06T06:36:47.957Z,100154.75
2023-03-06T06:39:49.514Z,100164.38
2023-03-06T06:42:52.619Z,100166.19
2023-03-06T06:45:59.712Z,100162.72
2023-03-06T06:49:13.030Z,100163.66
2023-03-06T06:52:14.741Z,100163.66
2023-03-06T06:55:16.593Z,100170.59
2023-03-06T06:58:18.526Z,100173.19
2023-03-06T07:01:20.598Z,100169.75
2023-03-06T07:04:22.222Z,100177.53
2023-03-06T07:07:25.512Z,100177.59
2023-03-06T07:10:28.051Z,100181.06
2023-03-06T07:13:29.651Z,100175.00
2023-03-06T07:16:31.236Z,100169.75
2023-03-06T07:19:32.998Z,100170.59
2023-03-06T07:22:49.955Z,100166.19
2023-03-06T07:25:55.976Z,100163.56
2023-03-06T07:28:57.549Z,100160.94
2023-03-06T07:31:59.411Z,100168.78
2023-03-06T07:35:18.965Z,100161.91
2023-03-06T07:38:21.243Z,100165.41
2023-03-06T07:41:23.038Z,100173.28
2023-03-06T07:44:24.677Z,100175.81
2023-03-06T07:47:26.464Z,100171.41
2023-03-06T07:50:28.351Z,100167.81
2023-03-06T07:53:32.734Z,100175.44
2023-03-06T07:56:35.154Z,100176.19
2023-03-06T07:59:36.784Z,100174.31
2023-03-06T08:02:38.729Z,100170.69
2023-03-06T08:05:40.643Z,100169.81
2023-03-06T08:08:44.480Z,100173.31
2023-03-06T08:11:46.138Z,100178.41
2023-03-06T08:14:47.740Z,100180.03
2023-03-06T08:17:50.002Z,100180.81
2023-03-06T08:21:00.555Z,100180.81
2023-03-06T08:24:02.121Z,100185.16
2023-03-06T08:27:03.941Z,100185.94
2023-03-06T08:30:07.096Z,100184.97
2023-03-06T08:33:08.743Z,100191.81
2023-03-06T08:36:10.466Z,100194.22
2023-03-06T08:39:13.186Z,100186.97
2023-03-06T08:42:15.944Z,100185.94
2023-03-06T08:45:17.627Z,100197.06
2023-03-06T08:48:19.232Z,100192.13
2023-03-06T08:51:21.978Z,100199.34
2023-03-06T08:54:23.586Z,100205.22
2023-03-06T08:57:25.187Z,100200.47
2023-03-06T09:00:26.828Z,100202.81
2023-03-06T09:03:28.447Z,100207.06
2023-03-06T09:06:32.645Z,100197.28
2023-03-06T09:09:34.257Z,100209.28
2023-03-06T09:12:49.912Z,100208.44
2023-03-06T09:15:53.007Z,100209.13
2023-03-06T09:18:54.737Z,100204.69
2023-03-06T09:21:57.846Z,100210.59
2023-03-06T09:24:59.909Z,100214.47
2023-03-06T09:28:11.059Z,100207.81
2023-03-06T09:31:16.098Z,100215.16
2023-03-06T09:34:17.817Z,100211.31
2023-03-06T09:37:20.356Z,100211.22
2023-03-06T09:40:42.936Z,100214.78
2023-03-06T09:43:48.141Z,100216.63
2023-03-06T09:47:08.684Z,100218.63
2023-03-06T09:50:24.082Z,100217.09
2023-03-06T09:53:55.774Z,100215.59
2023-03-06T09:56:57.620Z,100213.94
2023-03-06T10:00:04.668Z,100213.69
2023-03-06T10:03:18.305Z,100207.25
2023-03-06T10:07:01.547Z,100210.56
2023-03-06T10:10:06.405Z,100206.94
2023-03-06T10:13:28.623Z,100200.53
2023-03-06T10:16:32.224Z,100194.06
2023-03-06T10:19:42.260Z,100194.63
2023-03-06T10:23:01.384Z,100193.44
2023-03-06T10:26:08.204Z,100190.44
2023-03-06T10:29:12.794Z,100194.44
2023-03-06T10:32:29.075Z,100192.16
2023-03-06T10:35:53.351Z,100192.66
2023-03-06T10:38:57.501Z,100194.44
2023-03-06T10:41:59.189Z,100194.75
2023-03-06T10:45:13.330Z,100188.19
2023-03-06T10:48:19.274Z,100179.59
2023-03-06T10:51:23.339Z,100175.06
2023-03-06T10:54:25.644Z,100177.59
2023-03-06T10:57:30.221Z,100171.41
2023-03-06T11:00:36.272Z,100176.72
2023-03-06T11:03:37.964Z,100172.38
2023-03-06T11:06:39.853Z,100158.13
2023-03-06T11:10:04.585Z,100164.44
2023-03-06T11:13:21.473Z,100164.69
2023-03-06T11:16:30.529Z,100167.91
2023-03-06T11:19:33.155Z,100164.91
2023-03-06T11:22:36.152Z,100179.44
2023-03-06T11:25:48.362Z,100176.97
2023-03-06T11:29:08.485Z,100167.59
2023-03-06T11:32:18.888Z,100163.34
2023-03-06T11:35:24.647Z,100168.50
2023-03-06T11:38:38.899Z,100163.03
2023-03-06T11:41:54.334Z,100168.31
2023-03-06T11:45:10.042Z,100154.31
2023-03-06T11:48:14.395Z,100156.19
2023-03-06T11:51:25.962Z,100143.16
2023-03-06T11:54:27.638Z,100144.03
2023-03-06T11:57:46.814Z,100144.63
2023-03-06T12:01:07.285Z,100148.63
2023-03-06T12:04:39.222Z,100143.50
2023-03-06T12:08:19.499Z,100138.75
2023-03-06T12:11:29.718Z,100140.44
2023-03-06T12:14:47.081Z,100144.72
2023-03-06T12:18:07.005Z,100134.31
2023-03-06T12:21:45.391Z,100141.69
2023-03-06T12:25:18.257Z,100133.59
2023-03-06T12:29:04.088Z,100131.97
2023-03-06T12:32:21.367Z,100141.97
2023-03-06T12:35:55.063Z,100138.03
2023-03-06T12:39:04.945Z,100127.16
2023-03-06T12:42:22.629Z,100132.84
2023-03-06T12:45:32.484Z,100133.03
2023-03-06T12:48:37.671Z,100126.13
2023-03-06T12:51:40.245Z,100124.44
2023-03-06T12:54:42.218Z,100110.06
2023-03-06T12:57:44.008Z,100114.88
2023-03-06T13:01:06.490Z,100122.72
2023-03-06T13:04:42.068Z,100109.59
2023-03-06T13:08:06.941Z,100106.72
2023-03-06T13:11:30.599Z,100108.06
2023-03-06T13:14:42.283Z,100105.50
2023-03-06T13:17:50.180Z,100109.41
2023-03-06T13:20:53.640Z,100115.06
2023-03-06T13:24:04.586Z,100099.56
2023-03-06T13:27:09.408Z,100100.75
2023-03-06T13:30:36.797Z,100102.63
2023-03-06T13:33:38.415Z,100092.34
2023-03-06T13:36:40.044Z,100093.38
2023-03-06T13:39:59.508Z,100086.97
2023-03-06T13:43:07.257Z,100089.38
2023-03-06T13:46:37.105Z,100091.47
2023-03-06T13:49:46.719Z,100081.34
2023-03-06T13:53:35.670Z,100077.41
2023-03-06T13:56:42.983Z,100076.19
2023-03-06T14:00:14.482Z,100076.09
2023-03-06T14:03:49.500Z,100066.28
2023-03-06T14:06:52.793Z,100070.53
2023-03-06T14:10:20.756Z,100064.22
2023-03-06T14:13:30.048Z,100061.25
2023-03-06T14:16:49.283Z,100056.03
2023-03-06T14:19:51.813Z,100058.59
2023-03-06T14:22:53.504Z,100050.69
2023-03-06T14:26:10.929Z,100047.25
2023-03-06T14:29:27.053Z,100048.03
2023-03-06T14:32:28.743Z,100043.50
2023-03-06T14:35:34.458Z,100049.72
2023-03-06T14:38:42.336Z,100039.16
2023-03-06T14:41:44.008Z,100039.16
2023-03-06T14:44:46.838Z,100048.88
2023-03-06T14:47:52.834Z,100048.97
2023-03-06T14:50:56.824Z,100040.28
2023-03-06T14:54:09.960Z,100037.66
2023-03-06T14:57:18.994Z,100034.25
2023-03-06T15:00:24.624Z,100035.28
2023-03-06T15:03:46.044Z,100032.81
2023-03-06T15:06:47.963Z,100033.75
2023-03-06T15:09:52.150Z,100029.31
2023-03-06T15:12:54.253Z,100024.03
2023-03-06T15:16:23.491Z,100021.25
2023-03-06T15:19:25.140Z,100017.41
2023-03-06T15:22:31.965Z,100018.31
2023-03-06T15:25:33.640Z,100018.53
2023-03-06T15:28:38.624Z,100009.00
2023-03-06T15:31:46.896Z,100012.75
2023-03-06T15:35:08.447Z,100005.94
2023-03-06T15:38:34.428Z,99994.81
2023-03-06T15:41:38.247Z,99989.06
2023-03-06T15:44:39.940Z,99987.44
2023-03-06T15:47:43.178Z,99987.69
2023-03-06T15:50:44.775Z,99984.47
2023-03-06T15:53:46.407Z,99979.47
2023-03-06T15:56:49.696Z,99978.88
2023-03-06T15:59:52.163Z,99980.78
2023-03-06T16:02:53.987Z,99970.31
2023-03-06T16:05:55.616Z,99971.34
2023-03-06T16:08:57.312Z,99961.13
2023-03-06T16:11:59.463Z,99969.41
2023-03-06T16:15:01.987Z,99965.16
2023-03-06T16:18:03.935Z,99958.44
2023-03-06T16:21:06.733Z,99962.38
2023-03-06T16:24:08.466Z,99946.91
2023-03-06T16:27:17.050Z,99951.41
2023-03-06T16:30:20.116Z,99941.13
2023-03-06T16:33:21.804Z,99938.50
2023-03-06T16:36:26.690Z,99939.53
2023-03-06T16:39:28.294Z,99935.34
2023-03-06T16:42:30.007Z,99939.00
2023-03-06T16:45:35.432Z,99931.28
2023-03-06T16:48:37.036Z,99933.41
2023-03-06T16:51:40.258Z,99928.56
2023-03-06T16:54:44.461Z,99928.03
2023-03-06T16:57:46.480Z,99921.31
2023-03-06T17:00:48.071Z,99918.94
2023-03-06T17:03:49.684Z,99921.84
2023-03-06T17:06:52.909Z,99919.47
2023-03-06T17:09:54.493Z,99909.19
2023-03-06T17:12:56.781Z,99911.22
2023-03-06T17:15:59.460Z,99900.38
2023-03-06T17:19:02.420Z,99895.38
2023-03-06T17:22:04.138Z,99888.59
2023-03-06T17:25:07.923Z,99893.44
2023-03-06T17:28:10.797Z,99890.56
2023-03-06T17:31:18.234Z,99889.44
2023-03-06T17:34:19.871Z,99882.31
2023-03-06T17:37:21.482Z,99877.69
2023-03-06T17:40:23.394Z,99878.19
2023-03-06T17:43:24.953Z,99876.81
2023-03-06T17:46:26.653Z,99876.97
2023-03-06T17:49:28.550Z,99865.97
2023-03-06T17:52:30.925Z,99864.81
2023-03-06T17:55:32.515Z,99871.75
2023-03-06T17:58:34.306Z,99865.84
2023-03-06T18:01:36.241Z,99862.59
2023-03-06T18:04:38.050Z,99855.72
2023-03-06T18:07:39.696Z,99854.94
2023-03-06T18:10:42.540Z,99854.09
2023-03-06T18:13:46.426Z,99844.59
2023-03-06T18:16:48.063Z,99841.16
2023-03-06T18:19:50.936Z,99837.00
2023-03-06T18:22:52.523Z,99825.88
2023-03-06T18:26:11.826Z,99823.41
2023-03-06T18:29:13.459Z,99812.28
2023-03-06T18:32:15.021Z,99808.97
2023-03-06T18:35:16.796Z,99798.50
2023-03-06T18:38:18.397Z,99798.50
2023-03-06T18:41:20.851Z,99782.81
2023-03-06T18:44:22.749Z,99789.84
2023-03-06T18:47:24.369Z,99778.56
2023-03-06T18:50:25.954Z,99776.09
2023-03-06T18:53:28.330Z,99768.78
2023-03-06T18:56:30.167Z,99772.09
2023-03-06T18:59:31.935Z,99766.91
2023-03-06T19:02:33.613Z,99751.03
2023-03-06T19:05:42.315Z,99752.91
2023-03-06T19:08:44.430Z,99749.75
2023-03-06T19:11:46.962Z,99748.25
2023-03-06T19:14:48.599Z,99745.78
2023-03-06T19:17:51.440Z,99745.00
2023-03-06T19:20:53.389Z,99735.41
2023-03-06T19:23:56.312Z,99731.94
2023-03-06T19:26:57.901Z,99731.09
2023-03-06T19:29:59.460Z,99715.47
2023-03-06T19:33:01.021Z,99714.72
2023-03-06T19:36:03.468Z,99709.50
2023-03-06T19:39:07.093Z,99702.56
2023-03-06T19:42:09.472Z,99698.97
2023-03-06T19:45:11.554Z,99680.47
2023-03-06T19:48:13.574Z,99677.84
2023-03-06T19:51:15.160Z,99665.53
2023-03-06T19:54:16.936Z,99669.19
2023-03-06T19:57:19.443Z,99655.25
2023-03-06T20:00:21.304Z,99650.19
2023-03-06T20:03:22.903Z,99650.25
2023-03-06T20:06:26.857Z,99643.31
2023-03-06T20:09:28.433Z,99638.97
2023-03-06T20:12:30.372Z,99637.34
2023-03-06T20:15:35.317Z,99636.59
2023-03-06T20:18:37.255Z,99633.97
2023-03-06T20:21:38.884Z,99626.13
2023-03-06T20:24:40.566Z,99620.06
2023-03-06T20:27:42.151Z,99626.13
2023-03-06T20:30:43.786Z,99613.09
2023-03-06T20:33:50.989Z,99606.09
2023-03-06T20:36:52.726Z,99592.19
2023-03-06T20:39:54.374Z,99582.63
2023-03-06T20:42:55.947Z,99585.31
2023-03-06T20:45:59.628Z,99581.94
2023-03-06T20:49:02.003Z,99569.06
2023-03-06T20:52:03.802Z,99577.28
2023-03-06T20:55:05.931Z,99559.28
2023-03-06T20:58:07.477Z,99553.44
2023-03-06T21:01:09.080Z,99544.13
2023-03-06T21:04:13.916Z,99531.25
2023-03-06T21:07:16.994Z,99541.09
2023-03-06T21:10:18.675Z,99532.50
2023-03-06T21:13:20.520Z,99521.34
2023-03-06T21:16:24.720Z,99517.25
2023-03-06T21:19:26.360Z,99514.03
2023-03-06T21:22:30.268Z,99496.75
2023-03-06T21:25:32.136Z,99498.84
2023-03-06T21:28:33.713Z,99485.06
2023-03-06T21:31:35.969Z,99470.19
2023-03-06T21:34:37.603Z,99466.72
2023-03-06T21:37:39.196Z,99472.94
2023-03-06T21:40:40.874Z,99459.19
2023-03-06T21:43:42.904Z,99441.06
2023-03-06T21:46:44.474Z,99443.91
2023-03-06T21:49:48.851Z,99433.59
2023-03-06T21:52:51.276Z,99423.16
2023-03-06T21:55:52.838Z,99412.84
2023-03-06T21:58:56.642Z,99414.88
2023-03-06T22:01:58.250Z,99396.72
2023-03-06T22:04:59.856Z,99387.16
2023-03-06T22:08:01.491Z,99392.41
2023-03-06T22:11:12.221Z,99383.78
2023-03-06T22:14:14.894Z,99371.41
2023-03-06T22:17:16.471Z,99371.41
2023-03-06T22:20:18.228Z,99353.88
2023-03-06T22:23:19.833Z,99338.13
2023-03-06T22:26:21.593Z,99338.94
2023-03-06T22:29:24.106Z,99339.88
2023-03-06T22:32:25.764Z,99331.91
2023-03-06T22:35:27.697Z,99324.03
2023-03-06T22:38:29.436Z,99313.63
2023-03-06T22:41:31.433Z,99310.13
2023-03-06T22:44:33.047Z,99295.22
2023-03-06T22:47:38.045Z,99294.22
2023-03-06T22:50:39.717Z,99286.22
2023-03-06T22:53:41.580Z,99285.31
2023-03-06T22:56:43.176Z,99271.31
2023-03-06T22:59:44.729Z,99269.53
2023-03-06T23:02:46.384Z,99265.97
2023-03-06T23:05:48.001Z,99255.41
2023-03-06T23:08:53.292Z,99249.28
2023-03-06T23:11:54.921Z,99248.38
2023-03-06T23:14:56.648Z,99243.94
2023-03-06T23:17:58.328Z,99232.81
2023-03-06T23:21:00.014Z,99245.03
2023-03-06T23:24:02.248Z,99228.53
2023-03-06T23:27:04.632Z,99227.78
2023-03-06T23:30:06.845Z,99219.22
2023-03-06T23:33:09.431Z,99209.91
2023-03-06T23:36:13.711Z,99210.84
2023-03-06T23:39:15.886Z,99201.28
2023-03-06T23:42:17.524Z,99207.66
2023-03-06T23:45:19.217Z,99205.09
2023-03-06T23:48:21.524Z,99193.84
2023-03-06T23:51:23.545Z,99197.50
2023-03-06T23:54:25.159Z,99187.94
2023-03-06T23:57:26.815Z,99193.19
